Time;durP1;ratioP1;P1;durP2;ratioP2;P2;SDS_P1;SDS_P2;PMS_P1;PMS_P2;Temp;Humidity;BMP_temperature;BMP_pressure;BME280_temperature;BME280_humidity;BME280_pressure;Samples;Min_cycle;Max_cycle;Signal;HPM_P1;HPM_P2
2024/04/15 00:01:12;;;;;;;8.73;1.38;;;12.30;68.50;;;;;;5383449;26;19996;-78
2024/04/15 00:03:38;;;;;;;5.35;1.30;;;12.10;68.20;;;;;;5381521;26;19988;-78
2024/04/15 00:06:06;;;;;;;2.80;0.60;;;12.10;68.50;;;;;;5382144;26;20003;-76
2024/04/15 00:08:31;;;;;;;4.05;0.90;;;12.10;68.50;;;;;;5383074;26;19996;-75
2024/04/15 00:11:01;;;;;;;5.38;0.80;;;12.10;68.60;;;;;;5381611;26;19992;-75
2024/04/15 00:13:26;;;;;;;6.00;0.70;;;12.00;68.50;;;;;;5381661;26;19996;-76
2024/04/15 00:15:56;;;;;;;4.45;1.23;;;12.00;68.60;;;;;;5384059;26;20007;-76
2024/04/15 00:18:22;;;;;;;5.30;1.30;;;11.90;68.80;;;;;;5381798;26;20000;-76
2024/04/15 00:20:47;;;;;;;4.03;0.80;;;11.90;69.00;;;;;;5380952;26;19996;-76
2024/04/15 00:23:13;;;;;;;5.47;0.70;;;11.80;69.00;;;;;;5381212;26;20000;-76
2024/04/15 00:25:39;;;;;;;4.65;0.77;;;11.80;69.20;;;;;;5383072;26;20000;-76
2024/04/15 00:28:05;;;;;;;8.40;1.40;;;11.70;69.50;;;;;;5381333;26;20448;-76
2024/04/15 00:30:32;;;;;;;5.07;0.80;;;11.50;70.10;;;;;;5381373;26;20061;-76
2024/04/15 00:32:58;;;;;;;5.30;1.27;;;11.50;70.40;;;;;;5383076;26;19999;-76
2024/04/15 00:35:24;;;;;;;7.37;0.87;;;11.50;70.80;;;;;;5381021;26;19996;-76
2024/04/15 00:37:49;;;;;;;6.05;1.40;;;11.40;71.10;;;;;;5410532;26;20010;-76
2024/04/15 00:40:15;;;;;;;7.10;1.30;;;11.40;71.60;;;;;;5382604;26;19996;-77
2024/04/15 00:42:41;;;;;;;5.20;1.23;;;11.30;71.70;;;;;;5383301;26;20008;-76
2024/04/15 00:45:33;;;;;;;8.13;1.40;;;11.20;72.20;;;;;;5381082;26;20003;-77
2024/04/15 00:48:00;;;;;;;10.20;1.80;;;11.20;72.80;;;;;;5384100;26;20363;-76
2024/04/15 00:50:27;;;;;;;10.33;2.10;;;11.10;73.10;;;;;;5380539;26;20066;-77
2024/04/15 00:52:55;;;;;;;4.83;1.60;;;11.10;73.80;;;;;;5382369;26;20073;-76
2024/04/15 00:55:25;;;;;;;5.00;1.10;;;11.10;74.20;;;;;;5385375;26;20000;-77
2024/04/15 00:57:54;;;;;;;6.03;1.33;;;11.00;73.80;;;;;;5382518;26;20035;-76
2024/04/15 01:00:40;;;;;;;8.10;2.17;;;10.90;74.10;;;;;;5363994;26;19996;-78
2024/04/15 01:03:06;;;;;;;4.37;1.50;;;10.90;74.40;;;;;;5377034;26;19999;-78
2024/04/15 01:05:46;;;;;;;7.90;1.80;;;10.80;75.00;;;;;;5380884;26;20082;-78
2024/04/15 01:08:12;;;;;;;5.63;1.40;;;10.70;75.30;;;;;;5409584;26;20023;-78
2024/04/15 01:10:38;;;;;;;5.10;1.27;;;10.70;76.00;;;;;;5382324;26;20000;-77
2024/04/15 01:13:04;;;;;;;6.70;1.90;;;10.70;76.00;;;;;;5379685;26;20007;-78
2024/04/15 01:15:30;;;;;;;11.37;1.40;;;10.60;76.10;;;;;;5380796;26;20452;-77
2024/04/15 01:17:57;;;;;;;5.77;1.37;;;10.60;76.50;;;;;;5382316;26;19996;-77
2024/04/15 01:20:23;;;;;;;4.90;1.53;;;10.60;76.80;;;;;;5382169;26;20044;-78
2024/04/15 01:22:55;;;;;;;9.43;1.77;;;10.60;76.70;;;;;;5380123;26;20356;-77
2024/04/15 01:25:21;;;;;;;4.43;1.43;;;10.50;77.40;;;;;;5382685;26;20004;-78
2024/04/15 01:27:47;;;;;;;6.50;1.67;;;10.60;77.50;;;;;;5382642;26;20317;-77
2024/04/15 01:30:13;;;;;;;4.57;1.40;;;10.50;77.90;;;;;;5382168;26;19996;-78
2024/04/15 01:32:38;;;;;;;5.93;1.50;;;10.50;78.30;;;;;;5382322;26;20001;-78
2024/04/15 01:35:04;;;;;;;7.50;1.40;;;10.50;78.60;;;;;;5380579;26;20024;-78
2024/04/15 01:37:30;;;;;;;9.23;1.73;;;10.50;78.60;;;;;;5379683;26;20015;-77
2024/04/15 01:39:59;;;;;;;7.07;2.20;;;10.40;78.40;;;;;;5381640;26;20028;-78
2024/04/15 01:42:45;;;;;;;10.20;2.03;;;10.50;78.80;;;;;;5345015;26;19997;-77
2024/04/15 01:45:15;;;;;;;7.20;1.80;;;10.50;79.60;;;;;;5344405;26;20007;-78
2024/04/15 01:47:53;;;;;;;10.17;2.03;;;10.50;79.20;;;;;;5302809;26;19995;-78
2024/04/15 01:50:22;;;;;;;8.10;1.90;;;10.50;80.50;;;;;;5344052;26;19993;-78
2024/04/15 01:52:50;;;;;;;4.53;1.37;;;10.50;80.90;;;;;;5325870;26;20070;-77
2024/04/15 01:55:16;;;;;;;6.40;1.77;;;10.50;80.60;;;;;;5343969;26;20433;-76
2024/04/15 01:57:42;;;;;;;8.17;2.30;;;10.50;81.10;;;;;;5343985;26;20441;-77
2024/04/15 02:00:08;;;;;;;6.63;1.87;;;10.40;81.40;;;;;;5314824;26;20377;-77
2024/04/15 02:02:34;;;;;;;5.53;1.60;;;10.40;81.60;;;;;;5314323;26;20032;-77
2024/04/15 02:05:13;;;;;;;8.57;2.07;;;10.40;81.50;;;;;;5315426;26;20055;-79
2024/04/15 02:07:48;;;;;;;4.20;1.17;;;10.50;81.80;;;;;;5343620;26;20449;-77
2024/04/15 02:10:14;;;;;;;6.40;1.90;;;10.30;81.20;;;;;;5343600;26;20019;-75
2024/04/15 02:13:15;;;;;;;6.93;1.83;;;10.30;81.50;;;;;;5343541;26;20000;-77
2024/04/15 02:15:41;;;;;;;5.67;1.60;;;10.30;81.00;;;;;;5279712;27;20428;-77
2024/04/15 02:18:12;;;;;;;10.40;1.93;;;10.30;81.40;;;;;;5309238;27;20001;-77
2024/04/15 02:20:50;;;;;;;7.10;2.00;;;10.30;81.20;;;;;;5307513;27;20016;-78
2024/04/15 02:23:21;;;;;;;7.23;1.90;;;10.20;81.10;;;;;;5307742;27;19997;-78
2024/04/15 02:26:49;;;;;;;6.17;1.87;;;10.30;81.70;;;;;;5286540;26;20040;-77
2024/04/15 02:29:47;;;;;;;7.03;1.83;;;10.40;81.30;;;;;;5310217;26;19997;-78
2024/04/15 02:32:13;;;;;;;8.50;2.27;;;10.30;81.50;;;;;;5243986;27;20006;-76
2024/04/15 02:34:42;;;;;;;8.73;2.67;;;10.30;82.20;;;;;;5243664;27;20003;-77
2024/04/15 02:37:17;;;;;;;8.17;2.60;;;10.30;82.20;;;;;;5243375;27;20558;-78
2024/04/15 02:39:46;;;;;;;13.67;2.60;;;10.30;82.10;;;;;;5244120;27;20002;-78
2024/04/15 02:45:42;;;;;;;9.63;2.60;;;10.30;82.40;;;;;;5212567;27;20019;-77
2024/04/15 02:48:47;;;;;;;9.37;2.73;;;10.30;82.50;;;;;;5244152;27;19994;-78
2024/04/15 02:51:34;;;;;;;12.27;3.35;;;10.30;82.40;;;;;;5240268;27;20070;-77
2024/04/15 02:54:22;;;;;;;8.97;2.50;;;10.20;82.60;;;;;;5215876;27;20081;-77
2024/04/15 02:57:08;;;;;;;7.03;2.47;;;10.20;82.20;;;;;;5187375;27;20325;-77
2024/04/15 02:59:34;;;;;;;9.37;2.80;;;10.20;82.30;;;;;;5210548;27;20037;-77
2024/04/15 03:02:00;;;;;;;10.70;3.47;;;10.20;82.60;;;;;;5210351;27;20019;-75
2024/04/15 03:04:25;;;;;;;6.63;1.83;;;10.30;82.70;;;;;;5210211;27;20007;-77
2024/04/15 03:06:53;;;;;;;9.47;3.33;;;10.20;82.50;;;;;;5210857;27;20527;-77
2024/04/15 03:09:35;;;;;;;7.53;2.83;;;10.20;82.50;;;;;;5210290;27;19995;-76
2024/04/15 03:12:01;;;;;;;9.03;2.47;;;10.20;82.40;;;;;;5209963;27;20004;-77
2024/04/15 03:14:26;;;;;;;10.40;2.90;;;10.20;82.60;;;;;;5210720;27;19996;-77
2024/04/15 03:17:29;;;;;;;14.20;3.33;;;10.20;82.50;;;;;;5187108;27;19996;-77
2024/04/15 03:19:55;;;;;;;6.80;2.70;;;10.10;82.70;;;;;;5150561;27;20011;-78
2024/04/15 03:22:22;;;;;;;10.40;2.93;;;10.10;82.90;;;;;;5216978;27;19995;-77
2024/04/15 03:27:57;;;;;;;9.43;2.90;;;10.10;82.60;;;;;;5243940;27;20461;-77
2024/04/15 03:30:26;;;;;;;10.73;2.97;;;10.10;82.60;;;;;;5277143;27;19994;-78
2024/04/15 03:32:52;;;;;;;9.87;3.40;;;10.00;82.50;;;;;;5276970;27;20009;-77
2024/04/15 03:35:18;;;;;;;10.27;4.00;;;10.00;82.60;;;;;;5274007;27;19998;-78
2024/04/15 03:37:44;;;;;;;9.90;2.80;;;9.90;82.80;;;;;;5311304;27;20072;-78
2024/04/15 03:40:10;;;;;;;9.53;2.90;;;9.90;83.00;;;;;;5311804;26;20047;-77
2024/04/15 03:42:54;;;;;;;13.40;3.47;;;9.90;82.60;;;;;;5282439;27;20005;-77
2024/04/15 03:45:21;;;;;;;10.50;3.27;;;9.80;82.70;;;;;;5310915;26;19997;-77
2024/04/15 03:51:56;;;;;;;9.73;2.73;;;9.80;82.70;;;;;;5288818;26;20134;-77
2024/04/15 03:54:44;;;;;;;12.90;3.87;;;9.70;82.50;;;;;;5277050;27;20002;-77
2024/04/15 03:57:11;;;;;;;9.97;3.17;;;9.70;83.00;;;;;;5221163;27;20494;-77
2024/04/15 03:59:55;;;;;;;11.07;3.90;;;9.60;82.90;;;;;;5278445;27;20001;-77
2024/04/15 04:02:27;;;;;;;11.27;3.53;;;9.60;83.10;;;;;;5302536;27;20482;-78
2024/04/15 04:05:18;;;;;;;7.55;2.50;;;9.60;82.90;;;;;;5308667;27;20012;-77
2024/04/15 04:07:43;;;;;;;11.43;3.50;;;9.50;83.10;;;;;;5209240;27;20070;-78
2024/04/15 04:10:09;;;;;;;11.47;3.83;;;9.50;83.50;;;;;;5209419;27;20000;-77
2024/04/15 04:12:58;;;;;;;10.63;3.57;;;9.40;83.30;;;;;;5182030;27;20051;-77
2024/04/15 04:15:52;;;;;;;9.43;3.47;;;9.40;83.40;;;;;;5199323;27;19999;-77
2024/04/15 04:18:26;;;;;;;9.53;3.50;;;9.30;83.50;;;;;;5182351;27;20000;-77
2024/04/15 04:21:11;;;;;;;9.60;3.03;;;9.40;83.70;;;;;;5203475;27;19996;-77
2024/04/15 04:24:00;;;;;;;8.98;3.20;;;9.30;83.70;;;;;;5176791;27;20001;-77
2024/04/15 04:27:01;;;;;;;10.33;3.30;;;9.40;83.70;;;;;;5149719;27;19996;-77
2024/04/15 04:29:26;;;;;;;7.07;3.07;;;9.30;83.70;;;;;;5116878;27;19997;-76
2024/04/15 04:31:52;;;;;;;15.23;3.80;;;9.30;83.70;;;;;;5148115;27;20043;-77
2024/04/15 04:34:17;;;;;;;9.33;3.10;;;9.30;83.70;;;;;;5242963;27;20432;-77
2024/04/15 04:36:43;;;;;;;8.83;3.07;;;9.30;83.90;;;;;;5214813;27;20001;-77
2024/04/15 04:39:17;;;;;;;9.10;3.90;;;9.30;84.00;;;;;;5306361;26;20345;-77
2024/04/15 04:41:47;;;;;;;9.90;3.08;;;9.20;83.80;;;;;;5310822;26;20001;-78
2024/04/15 04:44:23;;;;;;;7.80;3.50;;;9.20;84.00;;;;;;5338879;26;20050;-77
2024/04/15 04:47:42;;;;;;;10.43;3.33;;;9.20;84.10;;;;;;5309526;27;20012;-78
2024/04/15 04:51:00;;;;;;;9.87;3.20;;;9.20;84.20;;;;;;5275412;27;20009;-77
2024/04/15 04:53:46;;;;;;;9.83;2.90;;;9.20;84.40;;;;;;5196781;27;20007;-78
2024/04/15 04:56:17;;;;;;;11.50;3.20;;;9.20;84.60;;;;;;5155658;27;20069;-77
2024/04/15 04:59:04;;;;;;;15.63;3.37;;;9.20;84.70;;;;;;5202212;27;20039;-79
2024/04/15 05:01:52;;;;;;;8.60;3.10;;;9.20;84.80;;;;;;5225047;27;19999;-78
2024/04/15 05:04:18;;;;;;;11.17;3.70;;;9.20;84.90;;;;;;5199890;27;20016;-77
2024/04/15 05:07:00;;;;;;;15.60;3.57;;;9.20;84.90;;;;;;5175437;27;20004;-78
2024/04/15 05:09:25;;;;;;;7.33;2.60;;;9.20;85.30;;;;;;5175830;27;20012;-77
2024/04/15 05:11:57;;;;;;;8.37;3.07;;;9.20;85.20;;;;;;5175982;27;20011;-78
2024/04/15 05:14:22;;;;;;;10.13;3.17;;;9.20;85.10;;;;;;5176322;27;20628;-78
2024/04/15 05:16:48;;;;;;;12.70;3.03;;;9.20;86.00;;;;;;5175767;27;20128;-77
2024/04/15 05:19:14;;;;;;;10.80;2.70;;;9.20;85.90;;;;;;5175941;27;20001;-79
2024/04/15 05:21:41;;;;;;;11.27;2.83;;;9.20;85.90;;;;;;5224989;27;20404;-77
2024/04/15 05:24:07;;;;;;;13.40;3.30;;;9.20;86.00;;;;;;5244990;27;19998;-78
2024/04/15 05:26:33;;;;;;;11.40;3.30;;;9.10;86.00;;;;;;5275436;27;20014;-78
2024/04/15 05:28:59;;;;;;;15.37;2.80;;;9.10;86.40;;;;;;5346720;26;20127;-78
2024/04/15 05:31:25;;;;;;;9.30;2.87;;;9.10;86.60;;;;;;5380674;26;20000;-78
2024/04/15 05:33:51;;;;;;;10.43;2.67;;;9.10;87.00;;;;;;5409241;26;20075;-78
2024/04/15 05:36:17;;;;;;;11.57;3.10;;;9.10;86.70;;;;;;5453263;26;20043;-77
2024/04/15 05:38:47;;;;;;;7.27;2.33;;;9.00;86.70;;;;;;5434845;26;19999;-77
2024/04/15 05:41:13;;;;;;;8.43;3.03;;;9.20;87.00;;;;;;5453041;26;19999;-76
2024/04/15 05:43:39;;;;;;;11.37;2.30;;;9.10;86.90;;;;;;5421633;26;20308;-77
2024/04/15 05:46:05;;;;;;;9.10;3.13;;;9.10;87.70;;;;;;5453366;26;20066;-78
2024/04/15 05:48:35;;;;;;;12.23;2.97;;;9.20;87.80;;;;;;5453344;26;20353;-77
2024/04/15 05:51:02;;;;;;;9.37;2.50;;;9.20;87.50;;;;;;5452651;26;20108;-77
2024/04/15 05:53:27;;;;;;;9.40;2.77;;;9.20;87.80;;;;;;5421274;26;20108;-77
2024/04/15 05:55:53;;;;;;;11.97;2.93;;;9.20;88.60;;;;;;5453067;26;20007;-76
2024/04/15 05:58:19;;;;;;;13.03;3.63;;;9.20;88.70;;;;;;5421377;26;20072;-76
2024/04/15 06:00:45;;;;;;;12.10;2.63;;;9.20;88.70;;;;;;5456519;26;19999;-76
2024/04/15 06:03:11;;;;;;;6.03;2.27;;;9.20;88.80;;;;;;5455613;26;20026;-76
2024/04/15 06:05:40;;;;;;;8.00;1.47;;;9.30;88.50;;;;;;5421655;26;20424;-76
2024/04/15 06:08:06;;;;;;;10.17;2.57;;;9.30;88.40;;;;;;5449983;26;20007;-76
2024/04/15 06:10:32;;;;;;;12.63;2.53;;;9.30;88.80;;;;;;5423982;26;20075;-76
2024/04/15 06:12:57;;;;;;;12.27;2.77;;;9.30;88.80;;;;;;5455211;26;20020;-76
2024/04/15 06:15:23;;;;;;;10.87;2.80;;;9.30;89.20;;;;;;5423034;26;20075;-76
2024/04/15 06:17:50;;;;;;;12.13;3.00;;;9.30;88.70;;;;;;5455890;26;20013;-77
2024/04/15 06:20:15;;;;;;;13.80;3.33;;;9.30;89.40;;;;;;5423762;26;20013;-76
2024/04/15 06:22:41;;;;;;;8.57;2.80;;;9.30;89.50;;;;;;5454996;26;20034;-77
2024/04/15 06:25:07;;;;;;;7.63;2.53;;;9.30;89.60;;;;;;5455696;26;20474;-76
2024/04/15 06:27:33;;;;;;;15.30;3.07;;;9.30;89.90;;;;;;5424192;26;20006;-77
2024/04/15 06:29:59;;;;;;;8.87;3.07;;;9.30;89.80;;;;;;5419879;26;19998;-76
2024/04/15 06:32:24;;;;;;;13.33;2.47;;;9.30;89.60;;;;;;5422155;26;20011;-76
2024/04/15 06:34:50;;;;;;;16.40;3.00;;;9.30;89.50;;;;;;5430961;26;20002;-78
2024/04/15 06:37:15;;;;;;;7.53;3.00;;;9.40;90.00;;;;;;5485213;26;20002;-80
2024/04/15 06:39:42;;;;;;;15.50;3.87;;;9.50;90.30;;;;;;5455861;26;20350;-79
2024/04/15 06:42:08;;;;;;;16.77;3.50;;;9.40;90.20;;;;;;5416031;26;20440;-80
2024/04/15 06:44:35;;;;;;;15.07;3.67;;;9.50;90.40;;;;;;5425282;26;20007;-82
2024/04/15 06:47:01;;;;;;;10.87;3.00;;;9.40;90.60;;;;;;5468833;26;20070;-81
2024/04/15 06:49:26;;;;;;;13.87;3.00;;;9.60;90.50;;;;;;5478613;26;20010;-80
2024/04/15 06:51:52;;;;;;;12.20;3.27;;;9.50;90.60;;;;;;5465402;26;20006;-79
2024/04/15 06:54:17;;;;;;;9.93;3.33;;;9.60;90.60;;;;;;5480842;26;19994;-80
2024/04/15 06:56:43;;;;;;;11.10;3.10;;;9.60;90.60;;;;;;5463153;26;20324;-80
2024/04/15 06:59:09;;;;;;;9.33;2.47;;;9.60;90.50;;;;;;5476960;26;20075;-81
2024/04/15 07:01:34;;;;;;;15.00;3.43;;;9.70;90.50;;;;;;5453995;26;20006;-80
2024/04/15 07:04:00;;;;;;;13.17;3.13;;;9.70;90.50;;;;;;5454197;26;20013;-81
2024/04/15 07:06:25;;;;;;;15.43;4.00;;;9.80;90.50;;;;;;5450020;26;20067;-79
2024/04/15 07:08:51;;;;;;;14.67;3.30;;;9.80;90.50;;;;;;5467466;26;19994;-83
2024/04/15 07:11:17;;;;;;;13.30;3.57;;;9.80;90.50;;;;;;5488742;26;20009;-81
2024/04/15 07:13:43;;;;;;;11.23;3.03;;;9.90;90.50;;;;;;5483114;26;20002;-81
2024/04/15 07:16:09;;;;;;;10.60;3.27;;;10.00;90.40;;;;;;5488942;26;20002;-79
2024/04/15 07:18:35;;;;;;;13.83;3.33;;;10.00;90.30;;;;;;5454456;26;20470;-79
2024/04/15 07:21:01;;;;;;;16.83;2.80;;;10.10;90.20;;;;;;5454248;26;20003;-80
2024/04/15 07:23:27;;;;;;;18.53;3.77;;;10.10;90.10;;;;;;5449148;26;20353;-77
2024/04/15 07:25:57;;;;;;;10.43;2.77;;;10.10;90.00;;;;;;5454376;26;20010;-79
2024/04/15 07:28:23;;;;;;;13.90;3.57;;;10.20;89.70;;;;;;5454826;26;19999;-79
2024/04/15 07:31:00;;;;;;;11.70;2.87;;;10.40;89.80;;;;;;5454904;26;20419;-81
2024/04/15 07:33:26;;;;;;;15.80;2.60;;;10.40;89.60;;;;;;5455321;26;20002;-79
2024/04/15 07:35:56;;;;;;;8.67;1.70;;;10.50;89.50;;;;;;5454704;26;20017;-81
2024/04/15 07:38:22;;;;;;;8.37;1.70;;;10.70;89.10;;;;;;5422798;26;20013;-80
2024/04/15 07:40:48;;;;;;;15.30;2.70;;;10.90;88.20;;;;;;5454691;26;20300;-80
2024/04/15 07:43:13;;;;;;;14.23;2.42;;;11.00;87.70;;;;;;5454785;26;20783;-81
2024/04/15 07:45:39;;;;;;;7.72;2.17;;;11.00;87.10;;;;;;5454909;26;20437;-80
2024/04/15 07:48:05;;;;;;;9.53;1.90;;;11.10;87.00;;;;;;5421695;26;20014;-80
2024/04/15 07:50:31;;;;;;;12.85;2.65;;;11.20;86.80;;;;;;5422794;26;20009;-80
2024/04/15 07:52:56;;;;;;;11.27;2.78;;;11.30;85.80;;;;;;5453569;26;20338;-81
2024/04/15 07:55:22;;;;;;;7.85;2.08;;;11.30;85.40;;;;;;5453748;26;20447;-80
2024/04/15 07:57:48;;;;;;;10.85;1.83;;;11.40;85.50;;;;;;5454398;26;19998;-82
2024/04/15 08:00:13;;;;;;;11.07;2.22;;;11.40;85.30;;;;;;5454463;26;19998;-81
2024/04/15 08:02:39;;;;;;;12.65;2.35;;;11.50;85.00;;;;;;5422109;26;20003;-80
2024/04/15 08:05:05;;;;;;;14.98;2.47;;;11.60;83.90;;;;;;5455598;26;20491;-81
2024/04/15 08:07:30;;;;;;;9.38;2.35;;;11.60;83.40;;;;;;5455195;26;19999;-81
2024/04/15 08:09:58;;;;;;;9.48;1.67;;;11.60;83.30;;;;;;5454244;26;20102;-81
2024/04/15 08:12:24;;;;;;;11.38;2.33;;;11.60;83.20;;;;;;5454548;26;20072;-82
2024/04/15 08:14:49;;;;;;;9.40;2.58;;;11.70;83.30;;;;;;5422325;26;20400;-83
2024/04/15 08:17:15;;;;;;;8.93;1.60;;;11.80;83.10;;;;;;5416167;26;20004;-81
2024/04/15 08:19:40;;;;;;;12.20;2.53;;;11.90;82.60;;;;;;5386691;26;20040;-80
2024/04/15 08:22:06;;;;;;;12.30;2.58;;;12.00;82.10;;;;;;5453472;26;20010;-77
2024/04/15 08:24:32;;;;;;;10.98;2.47;;;12.00;81.60;;;;;;5453588;26;19999;-80
2024/04/15 08:26:57;;;;;;;8.93;2.38;;;12.00;80.30;;;;;;5453399;26;20010;-79
2024/04/15 08:29:23;;;;;;;7.90;2.25;;;12.10;80.90;;;;;;5453549;26;20038;-80
2024/04/15 08:31:48;;;;;;;9.57;2.38;;;12.10;80.50;;;;;;5453415;26;19999;-82
2024/04/15 08:34:14;;;;;;;9.60;3.75;;;12.20;80.30;;;;;;5421817;26;20384;-80
2024/04/15 08:36:40;;;;;;;9.60;2.53;;;12.30;79.70;;;;;;5453164;26;20010;-84
2024/04/15 08:39:06;;;;;;;8.75;2.58;;;12.40;80.20;;;;;;5453018;26;20082;-82
2024/04/15 08:41:43;;;;;;;10.63;2.55;;;12.40;79.10;;;;;;5453251;26;20013;-81
2024/04/15 08:44:13;;;;;;;11.57;3.05;;;12.40;79.10;;;;;;5421361;26;20347;-81
2024/04/15 08:46:44;;;;;;;9.52;2.78;;;12.50;78.30;;;;;;5421397;26;20003;-81
2024/04/15 08:49:10;;;;;;;7.85;2.33;;;12.50;77.60;;;;;;5453803;26;20050;-78
2024/04/15 08:51:36;;;;;;;7.57;2.22;;;12.50;77.40;;;;;;5421296;26;20491;-81
2024/04/15 08:54:02;;;;;;;8.10;2.55;;;12.60;77.00;;;;;;5453497;26;19999;-78
2024/04/15 08:56:31;;;;;;;8.85;2.28;;;12.60;76.60;;;;;;5442679;26;20116;-79
2024/04/15 08:58:58;;;;;;;8.75;2.70;;;12.60;76.60;;;;;;5451216;26;20075;-80
2024/04/15 09:01:24;;;;;;;12.52;3.10;;;12.70;76.30;;;;;;5453484;26;20396;-81
2024/04/15 09:03:49;;;;;;;8.07;2.33;;;12.70;76.10;;;;;;5421018;26;20031;-82
2024/04/15 09:06:16;;;;;;;5.35;1.77;;;12.70;76.20;;;;;;5420984;26;20003;-81
2024/04/15 09:08:45;;;;;;;7.30;2.03;;;12.80;76.20;;;;;;5453695;26;20007;-82
2024/04/15 09:11:13;;;;;;;7.43;1.60;;;12.90;75.80;;;;;;5453573;26;20127;-82
2024/04/15 09:13:39;;;;;;;7.82;2.00;;;12.90;74.20;;;;;;5453418;26;19998;-81
2024/04/15 09:16:05;;;;;;;9.02;1.85;;;12.90;73.60;;;;;;5421970;26;20499;-81
2024/04/15 09:18:31;;;;;;;10.43;2.20;;;12.80;73.90;;;;;;5453665;26;19994;-82
2024/04/15 09:20:57;;;;;;;8.25;1.95;;;12.90;73.90;;;;;;5452346;26;20013;-81
2024/04/15 09:23:23;;;;;;;6.40;1.20;;;12.90;74.40;;;;;;5448909;26;20489;-81
2024/04/15 09:25:49;;;;;;;9.07;1.75;;;13.10;74.30;;;;;;5452736;26;20003;-79
2024/04/15 09:28:16;;;;;;;7.97;1.38;;;13.20;73.70;;;;;;5452623;26;20395;-81
2024/04/15 09:30:41;;;;;;;6.25;1.20;;;13.20;72.70;;;;;;5452668;26;20333;-81
2024/04/15 09:33:11;;;;;;;8.55;1.50;;;13.30;72.30;;;;;;5451703;26;19995;-84
2024/04/15 09:35:38;;;;;;;7.15;1.20;;;13.40;72.50;;;;;;5447182;26;20072;-81
2024/04/15 09:38:05;;;;;;;6.75;1.02;;;13.50;72.50;;;;;;5452247;26;20010;-79
2024/04/15 09:40:33;;;;;;;6.05;1.13;;;13.60;71.80;;;;;;5452080;26;20034;-80
2024/04/15 09:42:59;;;;;;;7.53;1.38;;;13.70;71.60;;;;;;5417256;26;20007;-80
2024/04/15 09:45:27;;;;;;;7.78;1.40;;;13.80;71.60;;;;;;5385624;26;20361;-80
2024/04/15 09:47:54;;;;;;;6.32;1.05;;;13.70;70.70;;;;;;5398755;26;20010;-79
2024/04/15 09:50:21;;;;;;;7.90;1.73;;;13.70;70.90;;;;;;5477847;26;20022;-82
2024/04/15 09:52:56;;;;;;;6.97;1.30;;;13.70;70.70;;;;;;5489230;26;20450;-81
2024/04/15 09:55:30;;;;;;;8.48;1.80;;;13.60;70.50;;;;;;5449837;26;20013;-82
2024/04/15 09:57:58;;;;;;;7.53;1.35;;;13.60;70.50;;;;;;5449573;26;20011;-81
2024/04/15 10:00:26;;;;;;;6.80;1.52;;;13.60;70.90;;;;;;5447187;26;20499;-82
2024/04/15 10:02:53;;;;;;;9.38;1.25;;;13.60;70.60;;;;;;5452036;26;20010;-79
2024/04/15 10:05:27;;;;;;;10.88;1.17;;;13.60;70.20;;;;;;5452093;26;20075;-82
2024/04/15 10:07:54;;;;;;;7.85;1.15;;;13.50;69.50;;;;;;5423776;26;20101;-81
2024/04/15 10:10:22;;;;;;;5.93;0.95;;;13.40;70.10;;;;;;5415197;26;20017;-81
2024/04/15 10:12:52;;;;;;;6.65;1.20;;;13.40;70.50;;;;;;5452690;26;20002;-80
2024/04/15 10:15:20;;;;;;;8.20;1.05;;;13.30;70.20;;;;;;5451849;26;20689;-83
2024/04/15 10:18:01;;;;;;;7.40;1.15;;;13.30;70.20;;;;;;5414451;26;20034;-80
2024/04/15 10:20:38;;;;;;;9.50;1.05;;;13.30;70.00;;;;;;5448705;26;19999;-79
2024/04/15 10:23:06;;;;;;;6.25;0.98;;;13.30;70.20;;;;;;5447155;26;20003;-79
2024/04/15 10:25:32;;;;;;;3.75;0.70;;;13.20;70.20;;;;;;5452214;26;20594;-82
2024/04/15 10:27:58;;;;;;;5.70;0.98;;;13.10;69.90;;;;;;5420569;26;20021;-79
2024/04/15 10:30:28;;;;;;;8.48;1.23;;;13.00;70.60;;;;;;5452252;26;20003;-84
2024/04/15 10:32:59;;;;;;;6.90;1.15;;;12.90;71.80;;;;;;5452658;26;19998;-89
2024/04/15 10:35:25;;;;;;;6.25;1.20;;;13.00;73.00;;;;;;5421258;26;20332;-83
2024/04/15 10:37:53;;;;;;;6.30;0.90;;;13.00;73.70;;;;;;5420108;26;19998;-80
2024/04/15 13:41:39;;;;;;;2.83;0.50;;;6.90;99.90;;;;;;5541165;25;20351;-78
2024/04/15 13:44:04;;;;;;;2.03;0.60;;;6.50;99.90;;;;;;5542119;25;20095;-79
2024/04/15 13:46:30;;;;;;;4.20;0.70;;;6.30;99.90;;;;;;5545241;25;20013;-79
2024/04/15 13:48:55;;;;;;;4.93;0.60;;;6.20;99.90;;;;;;5535546;21;20009;-77
2024/04/15 13:51:21;;;;;;;6.30;0.70;;;6.10;99.90;;;;;;5363282;26;20011;-77
2024/04/15 13:53:47;;;;;;;5.00;0.70;;;6.00;99.90;;;;;;5368262;26;20346;-76
2024/04/15 13:56:12;;;;;;;4.37;0.57;;;6.00;99.90;;;;;;5399928;26;19996;-80
2024/04/15 13:58:39;;;;;;;3.23;0.70;;;6.00;99.90;;;;;;5368257;26;20011;-78
2024/04/15 14:01:05;;;;;;;2.87;0.60;;;5.90;99.90;;;;;;5399061;26;20008;-83
2024/04/15 14:03:30;;;;;;;4.40;1.10;;;5.90;99.90;;;;;;5368460;26;20000;-83
2024/04/15 14:05:56;;;;;;;6.37;0.87;;;5.90;99.90;;;;;;5398513;26;19996;-80
2024/04/15 14:08:22;;;;;;;2.50;0.50;;;5.80;99.90;;;;;;5398943;26;20041;-81
2024/04/15 14:10:48;;;;;;;4.83;0.70;;;5.90;99.90;;;;;;5368081;26;20000;-80
2024/04/15 14:13:14;;;;;;;1.97;0.63;;;5.80;99.90;;;;;;5399318;26;20000;-81
2024/04/15 14:15:40;;;;;;;4.77;1.10;;;5.80;99.90;;;;;;5400113;26;19996;-80
2024/04/15 14:18:06;;;;;;;2.87;0.70;;;5.80;99.90;;;;;;5399935;26;20000;-78
2024/04/15 14:20:31;;;;;;;2.67;0.73;;;5.80;99.90;;;;;;5367743;26;20000;-79
2024/04/15 14:22:58;;;;;;;1.73;0.50;;;5.90;99.90;;;;;;5398662;26;20444;-76
2024/04/15 14:25:23;;;;;;;4.20;0.70;;;5.90;99.90;;;;;;5367738;26;20050;-76
2024/04/15 14:27:49;;;;;;;4.03;0.70;;;6.00;99.90;;;;;;5368069;26;20004;-76
2024/04/15 14:30:15;;;;;;;2.83;0.70;;;6.00;99.90;;;;;;5367954;26;19996;-80
2024/04/15 14:32:41;;;;;;;3.33;0.50;;;6.00;99.90;;;;;;5368422;26;20004;-75
2024/04/15 14:35:06;;;;;;;1.37;0.53;;;6.00;99.90;;;;;;5399321;26;20003;-75
2024/04/15 14:37:32;;;;;;;2.30;0.70;;;6.10;99.90;;;;;;5367955;26;20000;-75
2024/04/15 14:39:57;;;;;;;5.77;0.80;;;6.10;99.90;;;;;;5367928;26;20012;-75
2024/04/15 14:42:23;;;;;;;5.93;0.93;;;6.30;99.90;;;;;;5367532;26;20015;-77
2024/04/15 14:44:49;;;;;;;3.97;1.00;;;6.30;99.90;;;;;;5367693;26;20317;-76
2024/04/15 14:47:15;;;;;;;6.77;1.40;;;6.50;99.90;;;;;;5363117;26;20018;-77
2024/04/15 14:49:41;;;;;;;6.03;1.10;;;6.70;99.90;;;;;;5352418;26;20004;-76
2024/04/15 14:52:06;;;;;;;4.67;0.93;;;6.70;99.90;;;;;;5345037;26;20052;-77
2024/04/15 14:54:32;;;;;;;8.63;1.30;;;6.90;99.90;;;;;;5346884;26;20001;-75
2024/04/15 14:57:00;;;;;;;4.30;1.27;;;7.00;99.90;;;;;;5348944;26;20410;-76
2024/04/15 14:59:27;;;;;;;5.60;1.20;;;7.00;99.90;;;;;;5318124;26;20005;-78
2024/04/15 15:01:53;;;;;;;4.67;1.20;;;7.00;99.90;;;;;;5349296;26;20453;-79
2024/04/15 15:04:18;;;;;;;5.80;0.80;;;6.90;99.90;;;;;;5347258;26;20000;-77
2024/04/15 15:06:44;;;;;;;3.93;0.90;;;6.90;99.90;;;;;;5343187;26;20016;-79
2024/04/15 15:09:09;;;;;;;7.90;1.83;;;7.00;99.90;;;;;;5348505;26;19997;-76
2024/04/15 15:11:35;;;;;;;3.13;1.23;;;7.00;99.90;;;;;;5333487;26;20016;-77
2024/04/15 15:14:01;;;;;;;6.30;1.63;;;7.10;99.90;;;;;;5376752;26;20048;-76
2024/04/15 15:16:27;;;;;;;7.83;1.60;;;7.40;99.90;;;;;;5352497;26;20346;-76
2024/04/15 15:18:55;;;;;;;10.23;1.70;;;7.70;99.90;;;;;;5352876;26;20012;-79
2024/04/15 15:21:20;;;;;;;5.67;1.63;;;7.90;99.90;;;;;;5372142;26;20004;-76
2024/04/15 15:23:46;;;;;;;6.20;1.93;;;7.90;99.90;;;;;;5351750;26;19997;-79
2024/04/15 15:26:12;;;;;;;9.93;1.47;;;7.90;99.90;;;;;;5350430;26;20383;-82
2024/04/15 15:28:37;;;;;;;8.30;1.60;;;7.90;99.90;;;;;;5350696;26;20008;-78
2024/04/15 15:31:03;;;;;;;9.37;1.70;;;8.00;99.90;;;;;;5380121;26;20459;-78
2024/04/15 15:33:29;;;;;;;10.73;2.10;;;7.90;99.90;;;;;;5351806;26;20004;-75
2024/04/15 15:35:55;;;;;;;12.63;2.23;;;7.90;99.90;;;;;;5383262;26;20018;-78
2024/04/15 15:38:21;;;;;;;6.83;2.37;;;7.90;99.90;;;;;;5347376;26;20451;-80
2024/04/15 15:40:47;;;;;;;9.83;2.40;;;8.00;99.90;;;;;;5382667;26;20320;-77
2024/04/15 15:43:13;;;;;;;13.13;2.23;;;8.20;99.90;;;;;;5351909;26;20015;-79
2024/04/15 15:45:40;;;;;;;9.67;2.03;;;8.50;99.90;;;;;;5351779;26;20138;-78
2024/04/15 15:48:08;;;;;;;12.47;1.53;;;8.60;99.90;;;;;;5382542;26;20459;-80
2024/04/15 15:50:34;;;;;;;12.67;1.37;;;8.60;99.90;;;;;;5382264;26;20069;-79
2024/04/15 15:52:59;;;;;;;12.43;1.63;;;8.60;99.90;;;;;;5351542;26;20429;-78
2024/04/15 15:55:29;;;;;;;6.67;1.20;;;8.40;99.90;;;;;;5382387;26;20533;-78
2024/04/15 15:57:55;;;;;;;12.67;1.70;;;8.40;99.90;;;;;;5351629;26;20008;-78
2024/04/15 16:00:21;;;;;;;9.00;1.77;;;8.40;99.90;;;;;;5382260;26;20576;-78
2024/04/15 16:02:46;;;;;;;11.93;1.57;;;8.40;99.90;;;;;;5376948;26;20001;-76
2024/04/15 16:05:12;;;;;;;7.83;1.17;;;8.50;99.90;;;;;;5382113;26;20012;-80
2024/04/15 16:07:38;;;;;;;11.43;1.10;;;8.60;99.90;;;;;;5331058;26;20440;-77
2024/04/15 16:10:04;;;;;;;10.97;1.53;;;8.60;99.90;;;;;;5347778;26;20016;-79